Time;durP1;ratioP1;P1;durP2;ratioP2;P2;SDS_P1;SDS_P2;PMS_P1;PMS_P2;Temp;Humidity;BMP_temperature;BMP_pressure;BME280_temperature;BME280_humidity;BME280_pressure;Samples;Min_cycle;Max_cycle;Signal;HPM_P1;HPM_P2
2021/10/11 00:00:11;;;;;;;4.82;1.00;;;14.40;94.10;;;;;;5024516;28;20033;-62
2021/10/11 00:02:37;;;;;;;3.45;1.00;;;14.40;94.10;;;;;;5027789;28;20033;-62
2021/10/11 00:05:04;;;;;;;3.53;0.75;;;14.40;94.10;;;;;;5027945;28;20394;-62
2021/10/11 00:07:29;;;;;;;3.33;0.80;;;14.40;94.20;;;;;;5023059;28;20044;-62
2021/10/11 00:09:55;;;;;;;2.88;1.00;;;14.40;94.20;;;;;;5021407;28;20025;-63
2021/10/11 00:12:24;;;;;;;2.30;0.73;;;14.40;94.20;;;;;;5021028;28;20044;-62
2021/10/11 00:14:53;;;;;;;4.63;0.97;;;14.40;94.20;;;;;;5024258;28;20377;-62
2021/10/11 00:17:19;;;;;;;3.65;0.70;;;14.40;94.20;;;;;;5030746;28;20029;-62
2021/10/11 00:19:46;;;;;;;3.05;0.90;;;14.30;94.20;;;;;;5020546;28;20029;-62
2021/10/11 00:22:11;;;;;;;3.85;0.93;;;14.30;94.20;;;;;;5017583;28;20014;-62
2021/10/11 00:24:37;;;;;;;4.40;0.80;;;14.40;94.30;;;;;;5016072;28;20104;-62
2021/10/11 00:27:03;;;;;;;3.65;0.98;;;14.30;94.20;;;;;;5017004;28;20034;-62
2021/10/11 00:29:28;;;;;;;4.45;0.82;;;14.30;94.30;;;;;;5015167;28;20029;-62
2021/10/11 00:31:54;;;;;;;3.83;0.70;;;14.30;94.30;;;;;;5018171;28;20029;-62
2021/10/11 00:34:19;;;;;;;2.00;0.70;;;14.30;94.30;;;;;;5015739;28;20100;-62
2021/10/11 00:36:45;;;;;;;2.40;0.60;;;14.30;94.30;;;;;;5022859;28;20408;-62
2021/10/11 00:39:10;;;;;;;2.60;0.70;;;14.30;94.30;;;;;;5016550;28;20018;-62
2021/10/11 00:41:36;;;;;;;3.33;0.77;;;14.30;94.30;;;;;;5024472;28;20101;-62
2021/10/11 00:44:02;;;;;;;2.63;0.65;;;14.20;94.40;;;;;;5021800;28;20355;-62
2021/10/11 00:46:28;;;;;;;3.42;1.13;;;14.20;94.40;;;;;;5017943;28;20030;-62
2021/10/11 00:48:53;;;;;;;3.58;0.60;;;14.30;94.40;;;;;;5017353;28;20393;-62
2021/10/11 00:51:19;;;;;;;3.95;0.73;;;14.20;94.40;;;;;;5018248;28;20058;-62
2021/10/11 00:53:45;;;;;;;3.40;0.73;;;14.20;94.40;;;;;;5015261;28;20054;-62
2021/10/11 00:56:10;;;;;;;2.72;0.88;;;14.20;94.40;;;;;;5024738;28;20042;-62
2021/10/11 00:58:36;;;;;;;2.85;0.77;;;14.20;94.50;;;;;;5023894;28;20013;-62
2021/10/11 01:01:02;;;;;;;3.90;0.98;;;14.20;94.50;;;;;;5024649;28;20025;-62
2021/10/11 01:03:27;;;;;;;1.95;0.63;;;14.20;94.60;;;;;;5018834;28;20025;-62
2021/10/11 01:05:53;;;;;;;4.68;0.82;;;14.20;94.60;;;;;;5020824;28;20577;-62
2021/10/11 01:08:20;;;;;;;3.15;0.70;;;14.20;94.90;;;;;;5027350;28;20490;-62
2021/10/11 01:10:47;;;;;;;2.92;0.82;;;14.10;94.60;;;;;;5028291;28;20072;-62
2021/10/11 01:13:13;;;;;;;2.17;0.73;;;14.10;94.60;;;;;;5024673;28;20022;-62
2021/10/11 01:15:39;;;;;;;4.35;0.95;;;14.10;94.70;;;;;;5020758;28;20018;-62
2021/10/11 01:18:05;;;;;;;1.92;1.10;;;14.00;94.70;;;;;;5022793;28;20381;-62
2021/10/11 01:20:30;;;;;;;2.83;1.10;;;14.10;94.70;;;;;;5022162;28;20026;-62
2021/10/11 01:22:56;;;;;;;5.45;1.05;;;14.00;94.70;;;;;;5019725;28;20029;-62
2021/10/11 01:25:22;;;;;;;3.17;0.82;;;14.00;94.80;;;;;;5025019;28;20026;-62
2021/10/11 01:27:47;;;;;;;3.17;0.90;;;14.00;94.80;;;;;;5023505;28;20478;-62
2021/10/11 01:30:14;;;;;;;6.55;1.40;;;13.90;94.80;;;;;;5022327;28;20026;-62
2021/10/11 01:32:46;;;;;;;2.10;1.10;;;13.90;94.80;;;;;;5022687;28;20389;-62
2021/10/11 01:35:14;;;;;;;4.38;1.10;;;13.90;94.90;;;;;;5018822;28;20076;-62
2021/10/11 01:37:40;;;;;;;2.70;0.93;;;13.90;94.90;;;;;;5031999;28;20373;-62
2021/10/11 01:40:07;;;;;;;2.90;0.88;;;13.80;94.90;;;;;;5035240;28;20093;-62
2021/10/11 01:42:32;;;;;;;2.28;1.00;;;13.80;95.00;;;;;;5030307;28;20110;-62
2021/10/11 01:44:58;;;;;;;4.32;0.98;;;13.80;95.00;;;;;;5027311;28;20100;-62
2021/10/11 01:47:25;;;;;;;3.63;0.90;;;13.80;95.00;;;;;;5020997;28;20034;-62
2021/10/11 01:49:51;;;;;;;4.88;1.30;;;13.80;95.00;;;;;;5017154;28;20052;-62
2021/10/11 01:52:17;;;;;;;4.05;0.98;;;13.80;95.00;;;;;;5038136;28;20034;-62
2021/10/11 01:54:42;;;;;;;3.63;0.70;;;13.80;95.00;;;;;;5027628;28;20017;-62
2021/10/11 01:57:08;;;;;;;3.10;0.82;;;13.80;95.00;;;;;;5028686;28;20060;-62
2021/10/11 01:59:34;;;;;;;3.08;1.10;;;13.80;95.00;;;;;;5024076;28;20025;-62
2021/10/11 02:01:59;;;;;;;2.35;0.80;;;13.70;95.10;;;;;;5024378;28;20029;-62
2021/10/11 02:04:25;;;;;;;3.28;0.88;;;13.70;95.10;;;;;;5011323;28;20092;-62
2021/10/11 02:06:51;;;;;;;3.83;0.85;;;13.70;95.10;;;;;;5026101;28;20075;-62
2021/10/11 02:09:16;;;;;;;4.00;1.00;;;13.80;95.20;;;;;;5026183;28;20436;-62
2021/10/11 02:11:42;;;;;;;5.13;1.10;;;13.70;95.10;;;;;;5029219;28;20478;-62
2021/10/11 02:14:07;;;;;;;6.07;1.20;;;13.70;95.10;;;;;;5021518;28;20021;-62
2021/10/11 02:16:33;;;;;;;5.57;1.00;;;13.80;95.10;;;;;;5029293;28;20021;-62
2021/10/11 02:18:59;;;;;;;5.55;0.88;;;13.70;95.10;;;;;;5022209;28;20373;-62
2021/10/11 02:21:24;;;;;;;2.10;0.80;;;13.70;95.10;;;;;;5018463;28;20063;-62
2021/10/11 02:23:50;;;;;;;2.30;0.70;;;13.70;95.10;;;;;;5016675;28;20382;-62
2021/10/11 02:26:15;;;;;;;3.83;0.80;;;13.70;95.10;;;;;;5021923;28;20038;-62
2021/10/11 02:28:41;;;;;;;2.63;0.73;;;13.70;95.10;;;;;;5022960;28;20037;-62
2021/10/11 02:31:06;;;;;;;3.60;0.88;;;13.70;95.10;;;;;;5018825;28;20096;-62
2021/10/11 02:33:32;;;;;;;5.10;0.93;;;13.70;95.10;;;;;;5013785;28;20116;-62
2021/10/11 02:35:57;;;;;;;6.43;0.88;;;13.70;95.10;;;;;;5019048;28;20013;-62
2021/10/11 02:38:23;;;;;;;4.72;0.88;;;13.70;95.10;;;;;;5022230;28;20508;-62
2021/10/11 02:40:49;;;;;;;2.85;0.60;;;13.70;95.10;;;;;;5020740;28;20046;-62
2021/10/11 02:43:14;;;;;;;3.05;0.63;;;13.60;95.10;;;;;;5035298;28;20069;-62
2021/10/11 02:45:40;;;;;;;4.97;0.80;;;13.60;95.10;;;;;;5018873;28;20021;-62
2021/10/11 02:48:06;;;;;;;3.08;0.60;;;13.60;95.20;;;;;;5017051;28;20017;-62
2021/10/11 02:50:32;;;;;;;4.10;0.70;;;13.50;95.20;;;;;;5024164;28;20689;-62
2021/10/11 02:52:57;;;;;;;3.25;0.90;;;13.50;95.20;;;;;;5019537;28;20169;-62
2021/10/11 02:55:23;;;;;;;5.07;1.13;;;13.50;95.20;;;;;;5026900;28;20030;-62
2021/10/11 02:57:48;;;;;;;5.20;1.08;;;13.50;95.20;;;;;;5030804;28;20036;-62
2021/10/11 03:00:14;;;;;;;4.50;0.90;;;13.50;95.20;;;;;;5018358;28;20478;-62
2021/10/11 03:02:40;;;;;;;3.50;0.80;;;13.50;95.10;;;;;;5025151;28;20022;-62
2021/10/11 03:05:05;;;;;;;3.40;0.70;;;13.50;95.10;;;;;;5027357;28;20017;-62
2021/10/11 03:07:31;;;;;;;3.58;0.88;;;13.50;95.10;;;;;;5019097;28;20025;-62
2021/10/11 03:09:57;;;;;;;4.15;0.73;;;13.50;95.10;;;;;;5021247;28;20108;-62
2021/10/11 03:12:22;;;;;;;3.60;0.70;;;13.50;95.10;;;;;;5023881;28;20025;-62
2021/10/11 03:14:49;;;;;;;2.78;0.77;;;13.50;95.00;;;;;;5025279;28;20018;-62
2021/10/11 03:17:14;;;;;;;2.78;0.65;;;13.50;95.00;;;;;;5017546;28;20474;-62
2021/10/11 03:19:40;;;;;;;2.53;0.80;;;13.40;95.00;;;;;;5020048;28;20083;-62
2021/10/11 03:22:05;;;;;;;3.42;0.70;;;13.40;94.90;;;;;;5014712;28;20018;-62
2021/10/11 03:24:31;;;;;;;2.75;0.60;;;13.40;94.90;;;;;;5018003;28;20048;-62
2021/10/11 03:26:56;;;;;;;3.05;0.50;;;13.40;94.80;;;;;;5037515;28;20022;-62
2021/10/11 03:29:22;;;;;;;3.40;0.80;;;13.40;94.80;;;;;;5022760;28;20073;-62
2021/10/11 03:31:48;;;;;;;4.88;0.98;;;13.40;94.70;;;;;;5016844;28;20026;-62
2021/10/11 03:34:14;;;;;;;2.13;0.65;;;13.30;94.70;;;;;;5017346;28;20037;-62
2021/10/11 03:36:40;;;;;;;2.97;0.60;;;13.30;94.70;;;;;;5019628;28;20018;-62
2021/10/11 03:39:06;;;;;;;4.35;1.00;;;13.20;94.60;;;;;;5013374;28;20544;-62
2021/10/11 03:41:33;;;;;;;2.20;0.50;;;13.20;94.60;;;;;;5027574;28;20100;-62
2021/10/11 03:43:59;;;;;;;4.43;0.68;;;13.20;94.60;;;;;;5017183;28;20018;-62
2021/10/11 03:46:24;;;;;;;3.13;1.00;;;13.20;94.60;;;;;;5022392;28;20048;-62
2021/10/11 03:48:50;;;;;;;3.25;0.73;;;13.10;94.60;;;;;;5037842;28;20056;-62
2021/10/11 03:51:16;;;;;;;3.25;0.70;;;13.10;94.60;;;;;;5013543;28;20050;-62
2021/10/11 03:53:41;;;;;;;2.47;0.57;;;13.10;94.60;;;;;;5023101;28;20025;-62
2021/10/11 03:56:07;;;;;;;3.40;0.70;;;13.00;94.60;;;;;;5020592;28;20025;-62
2021/10/11 03:58:32;;;;;;;3.53;0.60;;;13.00;94.50;;;;;;5019836;28;20018;-62
2021/10/11 04:01:10;;;;;;;3.42;0.70;;;13.00;94.50;;;;;;5017789;28;20104;-62
2021/10/11 04:03:36;;;;;;;6.65;0.88;;;13.00;94.40;;;;;;5016801;28;20047;-62
2021/10/11 04:06:02;;;;;;;4.18;0.75;;;12.90;94.40;;;;;;5017614;28;20030;-62
2021/10/11 04:08:35;;;;;;;3.78;0.77;;;12.90;94.40;;;;;;5018835;28;20040;-62
2021/10/11 04:11:11;;;;;;;4.55;0.70;;;12.80;94.40;;;;;;5017736;28;20072;-62
2021/10/11 04:13:37;;;;;;;2.28;0.68;;;12.80;94.30;;;;;;5023969;28;20071;-62
2021/10/11 04:16:04;;;;;;;5.43;0.82;;;12.70;94.30;;;;;;5018541;28;20018;-62
2021/10/11 04:18:30;;;;;;;4.20;0.68;;;12.70;94.40;;;;;;5021128;28;20080;-62
2021/10/11 04:20:55;;;;;;;2.88;0.65;;;12.60;94.40;;;;;;5015517;28;20525;-62
2021/10/11 04:23:21;;;;;;;6.53;0.90;;;12.60;94.40;;;;;;5016195;28;20040;-62
2021/10/11 04:25:47;;;;;;;4.00;0.73;;;12.60;94.40;;;;;;5019991;28;20059;-62
2021/10/11 04:28:15;;;;;;;3.75;0.70;;;12.60;94.40;;;;;;5019574;28;20018;-62
2021/10/11 04:30:41;;;;;;;4.30;0.88;;;12.50;94.40;;;;;;5019701;28;20552;-62
2021/10/11 04:33:07;;;;;;;4.45;0.70;;;12.50;94.40;;;;;;5010238;28;20117;-62
2021/10/11 04:35:32;;;;;;;5.00;0.90;;;12.50;94.40;;;;;;5016243;28;20014;-62
2021/10/11 04:37:58;;;;;;;6.43;0.70;;;12.50;94.40;;;;;;5018251;28;20026;-62
2021/10/11 04:40:24;;;;;;;2.97;0.88;;;12.50;94.30;;;;;;5017639;28;20486;-62
2021/10/11 04:42:49;;;;;;;2.92;0.77;;;12.40;94.30;;;;;;5013990;28;20025;-62
2021/10/11 04:45:15;;;;;;;4.95;1.50;;;12.40;94.30;;;;;;5015290;28;20040;-62
2021/10/11 04:47:40;;;;;;;4.35;0.80;;;12.30;94.30;;;;;;5014933;28;20080;-62
2021/10/11 04:50:07;;;;;;;3.42;0.75;;;12.30;94.30;;;;;;5027084;28;20045;-62
2021/10/11 04:53:13;;;;;;;;;;;;;;;;;;;;;
2021/10/11 04:55:29;;;;;;;3.35;0.70;;;12.30;94.20;;;;;;5015671;28;20121;-63
2021/10/11 04:57:56;;;;;;;3.20;0.65;;;12.20;94.20;;;;;;5018858;28;20080;-62
2021/10/11 05:00:22;;;;;;;3.42;0.80;;;12.20;94.20;;;;;;5021174;28;20091;-62
2021/10/11 05:02:47;;;;;;;4.93;0.68;;;12.20;94.20;;;;;;5024709;28;20473;-62
2021/10/11 05:05:13;;;;;;;3.17;0.65;;;12.20;94.10;;;;;;5018474;28;20026;-62
2021/10/11 05:07:38;;;;;;;2.90;0.70;;;12.20;94.20;;;;;;5021630;28;20065;-62
2021/10/11 05:10:05;;;;;;;3.92;1.38;;;12.10;94.10;;;;;;5023829;28;20104;-62
2021/10/11 05:12:30;;;;;;;3.78;0.80;;;12.10;94.20;;;;;;5021667;28;20022;-62
2021/10/11 05:14:56;;;;;;;4.00;0.70;;;12.00;94.20;;;;;;5019429;28;20362;-62
2021/10/11 05:17:22;;;;;;;2.92;0.60;;;12.00;94.30;;;;;;5012669;28;20026;-62
2021/10/11 05:19:47;;;;;;;4.07;0.60;;;11.90;94.30;;;;;;5022101;28;20013;-62
2021/10/11 05:22:13;;;;;;;3.63;0.60;;;11.90;94.40;;;;;;5017170;28;20144;-62
2021/10/11 05:24:39;;;;;;;3.45;0.52;;;11.80;94.50;;;;;;5019290;28;20109;-62
2021/10/11 05:27:19;;;;;;;1.63;0.40;;;11.70;94.50;;;;;;5022412;28;20378;-62
2021/10/11 05:29:45;;;;;;;2.75;0.40;;;11.70;94.50;;;;;;5025420;28;20022;-62
2021/10/11 05:32:10;;;;;;;4.28;0.70;;;11.50;94.60;;;;;;5019369;28;20030;-62
2021/10/11 05:34:36;;;;;;;1.35;0.60;;;11.50;94.70;;;;;;5024693;28;20385;-62
2021/10/11 05:37:04;;;;;;;1.15;0.47;;;11.50;94.70;;;;;;5028803;28;20093;-62
2021/10/11 05:39:30;;;;;;;1.95;0.32;;;11.40;95.00;;;;;;5012416;28;20073;-62
2021/10/11 05:41:55;;;;;;;1.63;0.40;;;11.40;94.80;;;;;;5026051;28;20057;-62
2021/10/11 05:44:21;;;;;;;0.93;0.30;;;11.30;94.80;;;;;;5013058;28;20113;-62
2021/10/11 05:46:48;;;;;;;1.02;0.38;;;11.20;94.80;;;;;;5014526;28;20026;-62
2021/10/11 05:49:14;;;;;;;1.70;0.52;;;11.20;94.90;;;;;;5029678;28;20022;-62
2021/10/11 05:51:39;;;;;;;2.42;0.65;;;11.20;94.90;;;;;;5028161;28;20548;-62
2021/10/11 05:54:05;;;;;;;1.90;0.60;;;11.20;94.90;;;;;;5031743;28;20465;-62
2021/10/11 05:56:31;;;;;;;6.07;0.98;;;11.20;94.90;;;;;;5025440;28;20097;-62
2021/10/11 05:58:56;;;;;;;2.60;0.75;;;11.20;94.90;;;;;;5017807;28;20026;-62
2021/10/11 06:01:22;;;;;;;4.07;0.77;;;11.20;94.90;;;;;;5027586;28;20056;-62
2021/10/11 06:03:47;;;;;;;2.28;0.90;;;11.20;94.90;;;;;;5015490;28;20088;-62
2021/10/11 06:06:13;;;;;;;4.03;1.10;;;11.20;94.90;;;;;;5015686;28;20022;-62
2021/10/11 06:08:38;;;;;;;2.10;0.70;;;11.10;94.90;;;;;;5016828;28;20077;-62
2021/10/11 06:11:04;;;;;;;4.80;1.02;;;11.10;94.90;;;;;;5034851;28;20401;-62
2021/10/11 06:13:29;;;;;;;4.03;1.35;;;11.00;94.90;;;;;;5028757;28;20021;-62
2021/10/11 06:15:55;;;;;;;5.00;1.08;;;11.00;95.00;;;;;;5021132;28;20421;-62
2021/10/11 06:18:33;;;;;;;;;;;;;;;;;;;;;
2021/10/11 06:20:59;;;;;;;2.55;1.00;;;11.00;95.00;;;;;;5019038;28;20018;-62
2021/10/11 06:30:00;;;;;;;3.63;0.82;;;11.00;94.90;;;;;;5005074;28;20028;-62
2021/10/11 06:40:18;;;;;;;3.72;0.90;;;11.00;95.00;;;;;;4894983;29;20035;-62
2021/10/11 06:42:44;;;;;;;6.22;1.33;;;10.90;95.10;;;;;;4950584;29;20027;-62
2021/10/11 06:45:10;;;;;;;1.77;0.88;;;10.90;95.10;;;;;;4994880;28;20486;-62
2021/10/11 06:47:35;;;;;;;5.45;0.90;;;10.90;95.10;;;;;;5019595;28;20381;-62
2021/10/11 06:50:00;;;;;;;4.60;1.10;;;11.00;95.20;;;;;;5020805;28;20152;-62
2021/10/11 06:52:27;;;;;;;3.78;1.10;;;11.00;95.20;;;;;;5022159;28;20069;-62
2021/10/11 06:57:44;;;;;;;3.25;1.10;;;11.10;95.20;;;;;;5014385;28;20100;-61
2021/10/11 07:00:10;;;;;;;1.75;1.00;;;11.10;95.20;;;;;;5038116;28;20021;-62
2021/10/11 07:02:37;;;;;;;3.90;1.10;;;11.10;95.20;;;;;;5053874;28;20532;-62
2021/10/11 07:05:10;;;;;;;3.78;1.08;;;11.20;95.30;;;;;;5018725;28;20064;-62
2021/10/11 07:07:40;;;;;;;4.15;1.45;;;11.20;95.20;;;;;;5034206;28;20080;-62
2021/10/11 07:10:07;;;;;;;3.35;1.35;;;11.20;95.20;;;;;;5021304;28;20068;-62
2021/10/11 07:12:32;;;;;;;4.80;1.30;;;11.20;95.20;;;;;;5014325;28;20017;-62
2021/10/11 07:15:40;;;;;;;5.30;1.00;;;11.30;95.30;;;;;;5012472;28;20052;-62
2021/10/11 07:18:06;;;;;;;3.40;1.20;;;11.30;95.20;;;;;;5011336;28;20104;-62
2021/10/11 07:20:31;;;;;;;3.72;0.98;;;11.30;95.40;;;;;;5018194;28;20105;-63
2021/10/11 07:22:57;;;;;;;3.63;1.13;;;11.40;95.30;;;;;;5025975;28;20384;-62
2021/10/11 07:25:22;;;;;;;5.65;1.80;;;11.40;95.30;;;;;;5033733;28;20108;-62
2021/10/11 07:27:49;;;;;;;5.45;1.33;;;11.40;95.30;;;;;;5016559;28;20033;-62
2021/10/11 07:33:41;;;;;;;3.20;1.10;;;11.60;95.30;;;;;;5013733;28;20497;-63
2021/10/11 07:36:06;;;;;;;3.83;1.27;;;11.60;95.40;;;;;;5030537;28;20025;-62
2021/10/11 07:38:32;;;;;;;2.45;0.93;;;11.70;95.40;;;;;;5022517;28;20050;-62
2021/10/11 07:40:57;;;;;;;3.38;1.38;;;11.70;95.40;;;;;;5027134;28;20029;-62
2021/10/11 07:43:23;;;;;;;4.03;1.10;;;11.80;95.40;;;;;;5013633;28;20359;-62
2021/10/11 07:45:48;;;;;;;4.65;1.50;;;11.90;95.40;;;;;;5026070;28;20455;-62
2021/10/11 07:48:35;;;;;;;3.90;1.35;;;12.00;95.40;;;;;;5014686;28;20038;-63
2021/10/11 07:51:41;;;;;;;4.60;1.00;;;12.00;95.40;;;;;;5025826;28;20116;-63
2021/10/11 07:57:41;;;;;;;5.60;1.10;;;12.10;95.40;;;;;;5007451;28;20049;-62
2021/10/11 08:00:09;;;;;;;4.20;1.20;;;12.20;95.50;;;;;;5014796;28;20018;-62
2021/10/11 08:02:35;;;;;;;3.95;1.20;;;12.30;95.40;;;;;;5023475;28;20087;-62
2021/10/11 08:05:00;;;;;;;3.38;1.10;;;12.30;95.40;;;;;;5031695;28;20021;-62
2021/10/11 08:07:26;;;;;;;3.83;1.20;;;12.30;95.40;;;;;;5012376;28;20129;-62
2021/10/11 08:09:51;;;;;;;4.75;1.08;;;12.30;95.40;;;;;;5028121;28;20112;-62
2021/10/11 08:12:17;;;;;;;2.75;1.10;;;12.30;95.50;;;;;;5014357;28;20482;-63
2021/10/11 08:14:44;;;;;;;5.65;1.35;;;12.30;95.50;;;;;;5022409;28;20040;-63
2021/10/11 08:17:10;;;;;;;5.20;1.20;;;12.40;95.60;;;;;;5018310;28;20168;-63
2021/10/11 08:19:36;;;;;;;6.30;1.83;;;12.40;95.60;;;;;;5025678;28;20104;-63
2021/10/11 08:22:02;;;;;;;4.15;1.10;;;12.50;95.60;;;;;;5013182;28;20058;-62
2021/10/11 08:24:27;;;;;;;6.07;1.20;;;12.60;95.60;;;;;;5030403;28;20028;-63
2021/10/11 08:26:53;;;;;;;4.65;1.27;;;12.60;95.60;;;;;;5031060;28;20029;-62
2021/10/11 08:29:18;;;;;;;7.55;1.40;;;12.60;95.60;;;;;;5026037;28;20456;-62
2021/10/11 08:32:01;;;;;;;4.13;1.20;;;12.60;95.60;;;;;;5012471;28;20485;-63
2021/10/11 08:34:26;;;;;;;4.53;1.15;;;12.70;95.70;;;;;;5024468;28;20033;-62
2021/10/11 08:36:52;;;;;;;6.55;1.38;;;12.70;95.70;;;;;;5027810;28;20079;-62
2021/10/11 08:39:17;;;;;;;4.57;1.20;;;12.80;95.70;;;;;;5029373;28;20021;-62
2021/10/11 08:41:43;;;;;;;6.18;1.30;;;12.80;95.70;;;;;;5030955;28;20448;-62
2021/10/11 08:44:11;;;;;;;5.40;1.35;;;12.90;95.70;;;;;;5022360;28;20110;-63
2021/10/11 08:46:36;;;;;;;8.55;1.63;;;12.90;95.60;;;;;;5013849;28;20037;-62
2021/10/11 08:49:02;;;;;;;4.82;1.20;;;12.90;95.60;;;;;;5031653;28;20029;-62
2021/10/11 08:51:28;;;;;;;5.25;1.20;;;13.00;95.60;;;;;;5022920;28;20034;-62
2021/10/11 08:53:53;;;;;;;6.30;1.15;;;13.10;95.60;;;;;;5025020;28;20029;-62
2021/10/11 08:56:19;;;;;;;4.95;1.50;;;13.10;95.60;;;;;;5031078;28;20029;-62
2021/10/11 08:58:48;;;;;;;5.60;1.38;;;13.20;95.60;;;;;;5023045;28;20022;-62
2021/10/11 09:01:14;;;;;;;4.60;1.17;;;13.30;95.50;;;;;;5013996;28;20041;-62
2021/10/11 09:03:40;;;;;;;2.97;0.90;;;13.30;95.50;;;;;;5031088;28;20382;-62
2021/10/11 09:06:11;;;;;;;5.45;1.30;;;13.40;95.40;;;;;;5018185;28;20555;-62
2021/10/11 09:08:38;;;;;;;7.70;1.70;;;13.50;95.30;;;;;;5024660;28;20075;-62
2021/10/11 09:11:06;;;;;;;4.15;1.70;;;13.50;95.20;;;;;;5020499;28;20048;-62
2021/10/11 09:13:51;;;;;;;4.78;2.28;;;13.60;95.20;;;;;;5017966;28;20114;-62
2021/10/11 09:16:34;;;;;;;5.40;1.77;;;13.70;95.10;;;;;;5018734;28;20018;-62
2021/10/11 09:19:17;;;;;;;4.68;1.17;;;13.80;95.10;;;;;;5032754;28;20018;-62
2021/10/11 09:21:43;;;;;;;6.47;1.15;;;13.90;95.00;;;;;;5033480;28;20043;-62
2021/10/11 09:24:17;;;;;;;4.40;1.48;;;13.90;95.00;;;;;;5031271;28;20079;-62
2021/10/11 09:26:50;;;;;;;9.80;1.75;;;13.90;94.90;;;;;;5028153;28;20057;-62
2021/10/11 09:29:27;;;;;;;6.07;1.83;;;14.00;94.90;;;;;;5015953;28;20029;-62
2021/10/11 09:31:53;;;;;;;4.75;1.38;;;14.10;94.90;;;;;;5023768;28;20029;-62
2021/10/11 09:34:20;;;;;;;8.50;1.80;;;14.20;94.80;;;;;;5019648;28;20362;-62
2021/10/11 09:37:04;;;;;;;6.70;1.33;;;14.30;94.70;;;;;;5016259;28;20025;-62
2021/10/11 09:39:48;;;;;;;3.60;1.30;;;14.40;94.40;;;;;;5017455;28;20080;-62
2021/10/11 09:42:16;;;;;;;5.88;1.30;;;14.50;94.40;;;;;;5024833;28;20106;-62
2021/10/11 09:44:52;;;;;;;7.65;1.60;;;14.60;94.30;;;;;;5031916;28;20017;-62
2021/10/11 09:47:35;;;;;;;4.63;1.70;;;14.70;94.10;;;;;;5026237;28;20083;-62
2021/10/11 09:50:03;;;;;;;8.05;1.70;;;14.70;94.30;;;;;;5019589;28;20048;-62
2021/10/11 09:52:30;;;;;;;4.63;1.73;;;14.70;94.00;;;;;;5030935;28;20385;-62
2021/10/11 09:54:56;;;;;;;2.45;0.70;;;14.80;94.00;;;;;;5020063;28;20030;-62
2021/10/11 09:57:23;;;;;;;3.53;1.08;;;14.80;94.00;;;;;;5026882;28;20389;-62
2021/10/11 09:59:49;;;;;;;6.00;1.70;;;14.80;93.80;;;;;;5015678;28;20501;-62
2021/10/11 10:02:46;;;;;;;7.28;1.67;;;14.80;93.70;;;;;;5030525;28;20481;-62
2021/10/11 10:05:33;;;;;;;8.80;1.48;;;14.90;93.60;;;;;;5016969;28;20477;-62
2021/10/11 10:08:06;;;;;;;6.63;1.38;;;15.00;93.40;;;;;;5015205;28;20026;-62
2021/10/11 10:10:33;;;;;;;9.40;1.20;;;15.20;93.30;;;;;;5029181;28;20473;-62
2021/10/11 10:12:59;;;;;;;6.72;1.33;;;15.30;93.00;;;;;;5030547;28;20446;-62
2021/10/11 10:15:27;;;;;;;4.50;0.88;;;15.50;92.80;;;;;;5031877;28;20028;-62
2021/10/11 10:18:07;;;;;;;4.65;1.00;;;15.70;92.60;;;;;;5027688;28;20025;-62
2021/10/11 10:20:35;;;;;;;6.40;1.15;;;15.90;92.30;;;;;;5027638;28;20048;-63
2021/10/11 10:23:02;;;;;;;6.43;1.13;;;16.00;92.30;;;;;;5021245;28;20481;-62
2021/10/11 10:25:51;;;;;;;4.65;1.15;;;16.10;92.10;;;;;;5031794;28;20536;-62
2021/10/11 10:28:16;;;;;;;4.70;1.00;;;16.20;92.00;;;;;;5034701;28;20029;-62
2021/10/11 10:30:54;;;;;;;7.60;1.88;;;16.30;91.80;;;;;;5026894;28;20037;-62
2021/10/11 10:33:19;;;;;;;4.57;1.05;;;16.40;91.60;;;;;;5014839;28;20029;-62
2021/10/11 10:35:47;;;;;;;6.53;1.15;;;16.60;91.40;;;;;;5020734;28;20013;-63
2021/10/11 10:38:20;;;;;;;5.50;0.88;;;17.10;90.80;;;;;;5022095;28;20105;-63
2021/10/11 10:40:46;;;;;;;6.30;1.20;;;17.70;90.20;;;;;;5013952;28;20045;-63
2021/10/11 10:43:16;;;;;;;5.90;1.10;;;18.50;89.20;;;;;;5029291;28;20504;-63
2021/10/11 10:45:42;;;;;;;5.25;1.13;;;19.20;86.10;;;;;;5032307;28;20068;-63
2021/10/11 10:48:20;;;;;;;4.22;0.70;;;19.50;84.60;;;;;;5016845;28;20489;-63
2021/10/11 10:50:56;;;;;;;4.25;0.80;;;19.60;83.90;;;;;;5032232;28;20600;-63
2021/10/11 10:53:23;;;;;;;3.60;0.88;;;19.60;83.50;;;;;;5025039;28;20026;-63
2021/10/11 10:55:49;;;;;;;4.80;0.73;;;19.80;82.70;;;;;;5026525;28;20079;-63
2021/10/11 10:58:16;;;;;;;5.95;0.80;;;20.40;81.70;;;;;;5025728;28;20080;-63
2021/10/11 11:00:43;;;;;;;2.95;0.90;;;20.70;80.20;;;;;;5027337;28;20017;-63
2021/10/11 11:03:13;;;;;;;5.38;0.95;;;20.70;78.80;;;;;;5006312;28;20018;-63
2021/10/11 11:05:42;;;;;;;4.47;0.80;;;20.80;78.50;;;;;;4993721;28;20370;-63
2021/10/11 11:08:08;;;;;;;4.68;0.73;;;20.90;78.30;;;;;;5018218;28;20473;-63
2021/10/11 11:10:36;;;;;;;4.20;1.15;;;21.70;77.90;;;;;;5025746;28;20025;-63
2021/10/11 11:13:06;;;;;;;2.78;0.60;;;24.10;74.10;;;;;;5025382;28;20022;-64
2021/10/11 11:15:40;;;;;;;3.75;0.95;;;25.70;67.70;;;;;;5031485;28;20096;-63
2021/10/11 11:18:19;;;;;;;3.17;0.90;;;26.90;64.20;;;;;;5023947;28;20025;-64
2021/10/11 11:20:46;;;;;;;2.25;0.68;;;28.40;61.20;;;;;;5038576;28;20044;-64
2021/10/11 11:23:21;;;;;;;2.75;0.73;;;29.10;57.90;;;;;;5023795;28;20043;-64
2021/10/11 11:25:49;;;;;;;3.20;0.90;;;29.80;55.70;;;;;;5023695;28;20105;-64
2021/10/11 11:28:23;;;;;;;6.33;1.03;;;29.80;54.00;;;;;;5012373;28;20030;-64
2021/10/11 11:30:54;;;;;;;2.92;0.98;;;30.20;52.70;;;;;;5028337;28;20057;-64
2021/10/11 11:33:22;;;;;;;3.63;0.90;;;30.50;51.90;;;;;;5031748;28;20017;-64
2021/10/11 11:35:52;;;;;;;3.58;0.80;;;29.60;52.40;;;;;;5029099;28;20382;-64
2021/10/11 11:38:38;;;;;;;3.90;0.98;;;28.50;53.00;;;;;;5026257;28;20025;-64
2021/10/11 11:41:05;;;;;;;4.40;0.70;;;27.50;54.20;;;;;;5025476;28;20104;-64
2021/10/11 11:43:34;;;;;;;3.90;0.70;;;26.80;54.30;;;;;;5030113;28;20032;-64
2021/10/11 11:46:01;;;;;;;1.83;0.50;;;26.10;54.70;;;;;;5025580;28;20028;-64
2021/10/11 11:48:35;;;;;;;2.83;0.70;;;25.50;55.70;;;;;;5028894;28;20029;-63
2021/10/11 11:51:19;;;;;;;3.03;0.60;;;24.90;56.70;;;;;;5028876;28;20056;-64
2021/10/11 11:53:46;;;;;;;5.47;1.00;;;24.30;57.20;;;;;;5023247;28;20030;-64
2021/10/11 11:56:13;;;;;;;3.85;0.70;;;23.70;57.90;;;;;;5026690;28;20109;-64
2021/10/11 11:58:41;;;;;;;4.03;0.95;;;23.30;58.70;;;;;;5027082;28;20108;-64
2021/10/11 12:01:10;;;;;;;3.05;0.80;;;22.90;58.90;;;;;;5027698;28;20017;-64
2021/10/11 12:03:38;;;;;;;3.40;0.80;;;22.50;59.60;;;;;;5031314;28;20053;-64
2021/10/11 12:06:04;;;;;;;2.88;0.70;;;22.20;60.40;;;;;;5031765;28;20488;-64
2021/10/11 12:08:31;;;;;;;2.38;0.60;;;22.00;61.20;;;;;;5025614;28;20029;-64
2021/10/11 12:11:05;;;;;;;3.28;0.77;;;21.70;61.60;;;;;;5030977;28;20472;-64
2021/10/11 12:13:33;;;;;;;2.35;0.63;;;21.60;62.10;;;;;;5029794;28;20049;-64
2021/10/11 12:16:04;;;;;;;3.00;0.85;;;21.40;62.60;;;;;;5025237;28;20102;-64
2021/10/11 12:18:35;;;;;;;4.00;0.60;;;21.20;62.80;;;;;;5028714;28;20025;-64
2021/10/11 12:21:00;;;;;;;3.08;0.70;;;21.10;62.00;;;;;;5026890;28;20028;-64
2021/10/11 12:23:39;;;;;;;3.20;0.70;;;20.80;62.30;;;;;;5027730;28;20018;-64
2021/10/11 12:26:06;;;;;;;2.67;0.60;;;21.10;62.30;;;;;;5025454;28;20022;-64
2021/10/11 12:28:31;;;;;;;3.63;0.80;;;21.60;62.80;;;;;;5028202;28;20029;-64
2021/10/11 12:31:03;;;;;;;2.63;0.65;;;21.90;60.50;;;;;;5028805;28;20029;-64
2021/10/11 12:33:38;;;;;;;5.13;0.90;;;23.20;60.00;;;;;;5022771;28;20013;-64
2021/10/11 12:36:05;;;;;;;2.50;0.47;;;25.20;57.20;;;;;;5027572;28;20378;-64
2021/10/11 12:38:36;;;;;;;4.10;0.82;;;26.30;54.80;;;;;;5024712;28;20025;-64
2021/10/11 12:41:17;;;;;;;2.65;0.80;;;27.00;53.70;;;;;;5031007;28;20100;-64
2021/10/11 12:43:54;;;;;;;1.55;0.80;;;27.90;52.70;;;;;;5021932;28;20393;-64
2021/10/11 12:46:46;;;;;;;3.53;0.70;;;28.90;51.20;;;;;;5016893;28;20080;-64
2021/10/11 12:49:12;;;;;;;4.95;1.00;;;29.20;50.20;;;;;;5028677;28;20032;-64
2021/10/11 12:51:39;;;;;;;2.03;0.50;;;28.80;49.90;;;;;;5017774;28;20527;-65
2021/10/11 12:54:11;;;;;;;2.65;0.70;;;29.20;50.10;;;;;;5019818;28;20037;-64
2021/10/11 12:56:39;;;;;;;3.30;1.20;;;29.60;49.70;;;;;;5012587;28;20088;-65
2021/10/11 12:59:07;;;;;;;2.53;0.70;;;30.10;48.20;;;;;;5023801;28;20030;-64
2021/10/11 13:01:41;;;;;;;2.42;0.55;;;30.30;46.90;;;;;;5014693;28;20072;-64
2021/10/11 13:04:07;;;;;;;1.63;0.50;;;30.30;46.80;;;;;;5023584;28;20052;-64
2021/10/11 13:06:33;;;;;;;1.33;0.57;;;30.50;46.20;;;;;;5018180;28;20473;-64
2021/10/11 13:09:00;;;;;;;2.10;0.60;;;30.70;46.40;;;;;;5023452;28;20054;-64
2021/10/11 13:11:38;;;;;;;1.23;0.40;;;31.00;46.10;;;;;;5013307;28;20083;-64
2021/10/11 13:14:04;;;;;;;1.55;0.43;;;31.10;45.40;;;;;;5022347;28;20049;-64
2021/10/11 13:16:30;;;;;;;2.35;0.60;;;30.90;45.90;;;;;;5026263;28;20481;-64